createdAt,value
2023-01-29T00:04:25.991Z,13.00
2023-01-29T00:19:25.922Z,11.90
2023-01-29T00:34:25.686Z,11.20
2023-01-29T00:49:25.523Z,10.80
2023-01-29T01:04:25.388Z,13.00
2023-01-29T01:19:25.228Z,14.40
2023-01-29T01:34:25.097Z,15.30
2023-01-29T01:49:24.932Z,16.90
2023-01-29T02:04:24.806Z,17.30
2023-01-29T02:19:24.642Z,17.60
2023-01-29T02:34:24.489Z,20.60
2023-01-29T02:49:24.381Z,19.40
2023-01-29T03:04:24.180Z,18.20
2023-01-29T03:19:24.086Z,18.00
2023-01-29T03:34:23.897Z,18.50
2023-01-29T03:49:23.738Z,21.20
2023-01-29T04:04:23.606Z,19.20
2023-01-29T04:19:23.439Z,22.00
2023-01-29T04:34:23.340Z,22.70
2023-01-29T04:49:23.131Z,22.20
2023-01-29T05:04:22.984Z,26.10
2023-01-29T05:19:22.890Z,24.20
2023-01-29T05:34:22.677Z,29.10
2023-01-29T05:49:22.592Z,31.30
2023-01-29T06:04:22.392Z,37.90
2023-01-29T06:19:22.251Z,42.20
2023-01-29T06:34:22.084Z,39.00
2023-01-29T06:49:22.055Z,37.00
2023-01-29T07:04:21.790Z,41.10
2023-01-29T07:19:21.643Z,42.10
2023-01-29T07:34:21.530Z,45.00
2023-01-29T07:49:21.365Z,46.70
2023-01-29T08:04:21.202Z,45.90
2023-01-29T08:19:21.070Z,50.60
2023-01-29T08:34:20.894Z,54.00
2023-01-29T08:49:20.746Z,56.00
2023-01-29T09:04:20.585Z,54.70
2023-01-29T09:19:20.459Z,52.00
2023-01-29T09:34:20.290Z,52.60
2023-01-29T09:49:20.149Z,49.30
2023-01-29T10:04:20.094Z,48.70
2023-01-29T10:19:19.860Z,47.90
2023-01-29T10:34:19.713Z,46.10
2023-01-29T10:49:19.600Z,36.70
2023-01-29T11:04:19.431Z,34.90
2023-01-29T11:19:19.404Z,29.20
2023-01-29T11:34:19.141Z,30.60
2023-01-29T11:49:20.907Z,27.00
2023-01-29T12:04:18.880Z,22.50
2023-01-29T12:19:18.779Z,22.10
2023-01-29T12:34:18.574Z,21.80
2023-01-29T12:49:18.385Z,20.90
2023-01-29T13:04:22.325Z,18.80
2023-01-29T13:19:19.895Z,20.60
2023-01-29T13:34:17.921Z,20.70
2023-01-29T13:49:17.868Z,20.70
2023-01-29T14:04:17.707Z,19.50
2023-01-29T14:19:17.448Z,21.20
2023-01-29T14:34:17.600Z,21.70
2023-01-29T14:49:17.140Z,25.50
2023-01-29T15:04:17.039Z,28.00
2023-01-29T15:19:17.457Z,31.40
2023-01-29T15:34:16.665Z,32.70
2023-01-29T15:49:16.627Z,35.00
2023-01-29T16:04:16.371Z,34.20
2023-01-29T16:19:16.188Z,29.50
2023-01-29T16:34:16.032Z,32.20
2023-01-29T16:49:15.925Z,33.20
2023-01-29T17:04:15.775Z,37.70
2023-01-29T17:19:15.568Z,33.30
2023-01-29T17:34:15.631Z,32.70
2023-01-29T17:49:15.311Z,34.40
2023-01-29T18:04:15.208Z,36.90
2023-01-29T18:19:15.008Z,34.90
2023-01-29T18:34:14.900Z,27.50
2023-01-29T18:49:14.717Z,26.40
2023-01-29T19:04:14.598Z,27.70
2023-01-29T19:19:14.486Z,53.30
2023-01-29T19:34:15.426Z,24.70
2023-01-29T19:49:14.463Z,23.60
2023-01-29T20:04:14.153Z,22.00
2023-01-29T20:19:15.183Z,22.00
2023-01-29T20:34:13.694Z,18.60
2023-01-29T20:49:13.541Z,16.70
2023-01-29T21:04:13.403Z,16.30
2023-01-29T21:19:13.404Z,18.50
2023-01-29T21:34:13.244Z,16.80
2023-01-29T21:49:12.994Z,17.60
2023-01-29T22:04:12.829Z,17.10
2023-01-29T22:19:12.797Z,17.70
2023-01-29T22:34:12.537Z,18.30
2023-01-29T22:49:12.389Z,18.30
2023-01-29T23:04:12.279Z,18.10
2023-01-29T23:19:12.087Z,16.30
2023-01-29T23:34:11.949Z,16.70
2023-01-29T23:49:11.806Z,18.70
